Time;durP1;ratioP1;P1;durP2;ratioP2;P2;SDS_P1;SDS_P2;PMS_P1;PMS_P2;Temp;Humidity;BMP_temperature;BMP_pressure;BME280_temperature;BME280_humidity;BME280_pressure;Samples;Min_cycle;Max_cycle;Signal;HPM_P1;HPM_P2
2023/06/01 00:01:49;;;;;;;0.73;0.60;;;20.20;46.20;;;;;;5092709;28;20157;-82
2023/06/01 00:04:14;;;;;;;0.57;0.50;;;20.20;46.10;;;;;;5092789;28;20156;-82
2023/06/01 00:06:40;;;;;;;1.17;0.77;;;20.20;46.00;;;;;;5078142;28;20161;-82
2023/06/01 00:09:06;;;;;;;1.40;0.70;;;20.20;46.80;;;;;;5077983;28;20202;-82
2023/06/01 00:11:31;;;;;;;0.93;0.77;;;20.10;46.20;;;;;;5078314;28;20168;-81
2023/06/01 00:13:57;;;;;;;1.60;0.60;;;20.20;46.20;;;;;;5078011;28;20157;-81
2023/06/01 00:16:23;;;;;;;0.52;0.50;;;20.20;46.30;;;;;;5078504;28;20531;-81
2023/06/01 00:18:49;;;;;;;0.88;0.77;;;20.20;46.40;;;;;;5078263;28;20161;-81
2023/06/01 00:21:14;;;;;;;0.70;0.70;;;20.10;46.30;;;;;;5096106;28;20157;-81
2023/06/01 00:23:40;;;;;;;0.63;0.60;;;20.20;46.90;;;;;;5061299;28;20532;-82
2023/06/01 00:26:07;;;;;;;0.60;0.60;;;20.10;46.80;;;;;;5078014;28;20149;-82
2023/06/01 00:28:33;;;;;;;0.77;0.70;;;20.20;46.60;;;;;;5077975;28;20157;-82
2023/06/01 00:30:59;;;;;;;0.95;0.60;;;20.20;47.20;;;;;;5095711;28;20702;-81
2023/06/01 00:33:24;;;;;;;1.15;0.80;;;20.20;47.20;;;;;;5061293;28;20309;-81
2023/06/01 00:35:50;;;;;;;0.82;0.73;;;20.20;47.20;;;;;;5078136;28;20230;-82
2023/06/01 00:38:16;;;;;;;0.65;0.65;;;20.10;47.10;;;;;;5096042;28;20161;-81
2023/06/01 00:40:43;;;;;;;0.93;0.80;;;20.20;47.00;;;;;;5077640;28;20535;-81
2023/06/01 00:43:09;;;;;;;1.20;0.90;;;20.10;47.20;;;;;;5077968;28;20161;-81
2023/06/01 00:45:35;;;;;;;0.90;0.90;;;20.20;47.20;;;;;;5095621;28;20164;-81
2023/06/01 00:48:00;;;;;;;0.88;0.70;;;20.20;46.90;;;;;;5095542;28;20615;-82
2023/06/01 00:50:26;;;;;;;0.70;0.70;;;20.20;46.40;;;;;;5077656;28;20165;-81
2023/06/01 00:52:52;;;;;;;0.63;0.63;;;20.20;47.10;;;;;;5077328;28;20168;-81
2023/06/01 00:55:18;;;;;;;0.70;0.60;;;20.20;46.40;;;;;;5060495;28;20608;-81
2023/06/01 00:57:44;;;;;;;1.00;0.80;;;20.10;46.40;;;;;;5060726;28;20247;-81
2023/06/01 01:00:11;;;;;;;0.88;0.70;;;20.10;46.30;;;;;;5095280;28;20184;-81
2023/06/01 01:02:39;;;;;;;0.88;0.70;;;20.10;46.30;;;;;;5095453;28;20298;-81
2023/06/01 01:05:09;;;;;;;0.80;0.70;;;20.10;46.30;;;;;;5077439;28;20180;-81
2023/06/01 01:07:42;;;;;;;0.70;0.70;;;20.20;46.40;;;;;;5061087;28;20537;-81
2023/06/01 01:10:19;;;;;;;0.93;0.82;;;20.20;46.40;;;;;;5060930;28;20161;-81
2023/06/01 01:12:51;;;;;;;0.68;0.68;;;20.20;46.40;;;;;;5060709;28;20168;-81
2023/06/01 01:15:25;;;;;;;0.70;0.70;;;20.20;46.40;;;;;;5060854;28;20761;-81
2023/06/01 01:17:53;;;;;;;0.70;0.70;;;20.20;47.10;;;;;;5076477;28;20153;-81
2023/06/01 01:20:22;;;;;;;0.95;0.70;;;20.20;46.40;;;;;;5076775;28;20157;-81
2023/06/01 01:23:06;;;;;;;1.00;0.70;;;20.10;46.50;;;;;;5060092;28;20161;-81
2023/06/01 01:26:03;;;;;;;0.77;0.73;;;20.10;46.50;;;;;;5061107;28;20165;-81
2023/06/01 01:29:00;;;;;;;1.58;0.70;;;20.10;46.40;;;;;;5079790;28;20157;-82
2023/06/01 01:31:25;;;;;;;1.00;0.60;;;20.10;46.50;;;;;;5069226;28;20315;-81
2023/06/01 01:33:53;;;;;;;0.70;0.68;;;20.10;46.50;;;;;;5110572;28;20181;-81
2023/06/01 01:36:19;;;;;;;1.00;0.65;;;20.20;46.60;;;;;;5110278;28;20181;-81
2023/06/01 01:38:45;;;;;;;1.23;0.68;;;20.10;46.50;;;;;;5110286;28;20173;-81
2023/06/01 01:41:10;;;;;;;0.88;0.70;;;20.10;46.60;;;;;;5110364;28;20153;-81
2023/06/01 01:43:37;;;;;;;0.60;0.60;;;20.00;46.60;;;;;;5093213;28;20243;-82
2023/06/01 01:46:16;;;;;;;1.38;0.70;;;20.10;46.50;;;;;;5093726;28;20165;-81
2023/06/01 01:48:54;;;;;;;0.80;0.80;;;20.10;46.50;;;;;;5110177;28;20227;-81
2023/06/01 01:51:27;;;;;;;0.63;0.63;;;20.10;46.50;;;;;;5108687;28;20152;-82
2023/06/01 01:53:53;;;;;;;0.65;0.65;;;20.10;46.40;;;;;;5110025;28;20160;-81
2023/06/01 01:56:18;;;;;;;0.82;0.60;;;20.20;46.60;;;;;;5109936;28;20185;-81
2023/06/01 01:58:44;;;;;;;0.60;0.57;;;20.10;46.50;;;;;;5110169;28;20157;-81
2023/06/01 02:01:10;;;;;;;0.70;0.70;;;20.10;46.50;;;;;;5094249;28;20149;-81
2023/06/01 02:03:35;;;;;;;0.90;0.80;;;20.10;46.50;;;;;;5093068;28;20184;-81
2023/06/01 02:06:01;;;;;;;0.63;0.57;;;20.10;46.50;;;;;;5094087;28;20161;-81
2023/06/01 02:08:26;;;;;;;0.80;0.70;;;20.10;46.50;;;;;;5092996;28;20157;-81
2023/06/01 02:10:52;;;;;;;0.75;0.70;;;20.10;46.50;;;;;;5109749;28;20524;-81
2023/06/01 02:13:18;;;;;;;0.65;0.60;;;20.00;46.40;;;;;;5093999;28;20161;-81
2023/06/01 02:15:43;;;;;;;0.68;0.57;;;20.10;46.50;;;;;;5092640;28;20650;-81
2023/06/01 02:18:09;;;;;;;0.63;0.63;;;20.10;46.50;;;;;;5109646;28;20649;-82
2023/06/01 02:20:35;;;;;;;0.63;0.60;;;20.10;46.50;;;;;;5109656;28;20160;-81
2023/06/01 02:23:00;;;;;;;0.65;0.65;;;20.10;46.50;;;;;;5092546;28;20160;-81
2023/06/01 02:25:26;;;;;;;0.65;0.52;;;20.10;46.50;;;;;;5093110;28;20161;-81
2023/06/01 02:27:52;;;;;;;0.70;0.70;;;20.10;46.50;;;;;;5109062;28;20218;-81
2023/06/01 02:30:17;;;;;;;0.60;0.60;;;20.10;46.50;;;;;;5091851;28;20647;-81
2023/06/01 02:32:45;;;;;;;1.08;0.50;;;20.10;46.60;;;;;;5060035;28;20710;-81
2023/06/01 02:35:10;;;;;;;0.70;0.63;;;20.10;46.60;;;;;;5060899;28;20207;-83
2023/06/01 02:37:36;;;;;;;0.57;0.57;;;20.10;46.70;;;;;;5095304;28;20240;-82
2023/06/01 02:40:02;;;;;;;1.95;0.60;;;20.10;46.70;;;;;;5060396;28;20160;-81
2023/06/01 02:42:28;;;;;;;0.60;0.60;;;20.10;46.60;;;;;;5095395;28;20153;-82
2023/06/01 02:44:54;;;;;;;0.77;0.50;;;20.10;46.70;;;;;;5077478;28;20164;-82
2023/06/01 02:47:19;;;;;;;0.93;0.63;;;20.10;46.70;;;;;;5060285;28;20176;-82
2023/06/01 02:49:45;;;;;;;0.68;0.68;;;20.00;46.80;;;;;;5095241;28;20573;-82
2023/06/01 02:52:12;;;;;;;0.70;0.70;;;20.00;46.70;;;;;;5060579;28;20702;-82
2023/06/01 02:54:37;;;;;;;0.50;0.50;;;20.10;46.80;;;;;;5095378;28;20152;-81
2023/06/01 02:57:03;;;;;;;0.70;0.60;;;20.00;46.80;;;;;;5095303;28;20604;-82
2023/06/01 02:59:29;;;;;;;0.60;0.60;;;20.10;46.70;;;;;;5077342;28;20515;-82
2023/06/01 03:01:55;;;;;;;0.90;0.50;;;20.10;46.70;;;;;;5060836;28;20173;-82
2023/06/01 03:04:20;;;;;;;0.73;0.60;;;20.00;46.80;;;;;;5095234;28;20501;-81
2023/06/01 03:06:46;;;;;;;0.85;0.70;;;20.10;46.90;;;;;;5095425;28;20153;-82
2023/06/01 03:09:12;;;;;;;1.08;0.60;;;20.00;46.80;;;;;;5094972;28;20661;-81
2023/06/01 03:11:40;;;;;;;1.02;0.60;;;20.00;46.70;;;;;;5095240;28;20153;-82
2023/06/01 03:14:06;;;;;;;0.70;0.70;;;20.00;46.70;;;;;;5094981;28;20153;-82
2023/06/01 03:16:31;;;;;;;1.23;0.80;;;20.00;46.80;;;;;;5060091;28;20752;-82
2023/06/01 03:18:58;;;;;;;1.08;0.70;;;20.00;46.80;;;;;;5094852;28;20486;-83
2023/06/01 03:21:24;;;;;;;0.60;0.60;;;20.00;46.80;;;;;;5094857;28;20149;-82
2023/06/01 03:23:50;;;;;;;0.80;0.80;;;20.00;46.80;;;;;;5077154;28;20614;-81
2023/06/01 03:26:18;;;;;;;1.75;0.73;;;20.10;46.90;;;;;;5095017;28;20168;-80
2023/06/01 03:28:44;;;;;;;0.60;0.60;;;20.00;46.80;;;;;;5094486;28;20287;-82
2023/06/01 03:31:12;;;;;;;0.73;0.60;;;20.00;46.70;;;;;;5060090;28;20709;-81
2023/06/01 03:33:38;;;;;;;0.57;0.57;;;20.00;46.70;;;;;;5077299;28;20155;-81
2023/06/01 03:36:04;;;;;;;0.95;0.75;;;20.00;46.70;;;;;;5077262;28;20226;-82
2023/06/01 03:38:30;;;;;;;1.15;0.60;;;20.00;46.80;;;;;;5060129;28;20238;-81
2023/06/01 03:40:57;;;;;;;0.60;0.60;;;20.00;46.80;;;;;;5078892;28;20175;-82
2023/06/01 03:43:22;;;;;;;0.60;0.60;;;20.00;46.80;;;;;;5081085;28;20179;-82
2023/06/01 03:45:49;;;;;;;0.40;0.40;;;20.00;46.80;;;;;;5080761;28;20679;-81
2023/06/01 03:48:15;;;;;;;0.82;0.50;;;20.00;46.90;;;;;;5099181;28;20253;-81
2023/06/01 03:50:41;;;;;;;0.80;0.70;;;20.00;46.80;;;;;;5098443;28;20740;-81
2023/06/01 03:53:07;;;;;;;0.73;0.70;;;20.00;46.90;;;;;;5097856;28;20626;-82
2023/06/01 03:55:33;;;;;;;0.50;0.50;;;20.00;46.80;;;;;;5079580;28;20180;-80
2023/06/01 03:57:58;;;;;;;0.60;0.52;;;20.00;47.00;;;;;;5063438;28;20626;-81
2023/06/01 04:00:24;;;;;;;0.60;0.60;;;20.00;47.00;;;;;;5079941;28;20172;-82
2023/06/01 04:02:55;;;;;;;0.85;0.70;;;20.00;46.80;;;;;;5063694;28;20744;-82
2023/06/01 04:05:21;;;;;;;0.70;0.70;;;20.00;46.80;;;;;;5097968;28;20157;-82
2023/06/01 04:07:47;;;;;;;0.73;0.70;;;20.00;46.80;;;;;;5097725;28;20167;-82
2023/06/01 04:10:14;;;;;;;0.70;0.70;;;20.00;46.90;;;;;;5079472;28;20214;-82
2023/06/01 04:12:42;;;;;;;0.52;0.52;;;20.00;46.80;;;;;;5079348;28;20155;-82
2023/06/01 04:15:08;;;;;;;0.70;0.63;;;19.90;46.80;;;;;;5079379;28;20200;-81
2023/06/01 04:17:37;;;;;;;0.82;0.70;;;20.00;46.90;;;;;;5063344;28;20635;-81
2023/06/01 04:20:06;;;;;;;0.65;0.65;;;20.00;46.90;;;;;;5079808;28;20149;-81
2023/06/01 04:22:32;;;;;;;0.88;0.82;;;20.00;46.80;;;;;;5097643;28;20160;-82
2023/06/01 04:24:58;;;;;;;0.73;0.70;;;20.00;46.80;;;;;;5079661;28;20187;-81
2023/06/01 04:27:24;;;;;;;1.00;0.50;;;20.00;46.80;;;;;;5097480;28;20184;-82
2023/06/01 04:29:50;;;;;;;0.55;0.55;;;20.00;46.80;;;;;;5097883;28;20177;-82
2023/06/01 04:32:21;;;;;;;0.60;0.60;;;20.00;46.80;;;;;;5062557;28;20224;-82
2023/06/01 04:34:49;;;;;;;0.80;0.80;;;20.00;46.80;;;;;;5097034;28;20157;-81
2023/06/01 04:37:15;;;;;;;1.20;0.75;;;20.00;46.80;;;;;;5078959;28;20313;-82
2023/06/01 04:39:45;;;;;;;0.68;0.68;;;20.00;46.70;;;;;;5062144;28;20550;-83
2023/06/01 04:42:13;;;;;;;0.73;0.60;;;20.00;46.90;;;;;;5062887;28;20168;-81
2023/06/01 04:44:41;;;;;;;0.90;0.90;;;19.90;46.70;;;;;;5097139;28;20157;-83
2023/06/01 04:47:07;;;;;;;0.70;0.70;;;20.00;46.90;;;;;;5079671;28;20516;-81
2023/06/01 04:49:34;;;;;;;0.75;0.75;;;19.90;46.90;;;;;;5061748;28;20169;-81
2023/06/01 04:52:00;;;;;;;0.73;0.57;;;20.00;46.90;;;;;;5095591;28;20141;-81
2023/06/01 04:54:26;;;;;;;0.88;0.63;;;20.00;47.00;;;;;;5096992;28;20163;-81
2023/06/01 04:56:51;;;;;;;0.68;0.50;;;20.00;46.90;;;;;;5078676;28;20589;-81
2023/06/01 04:59:17;;;;;;;0.70;0.60;;;20.00;46.90;;;;;;5078593;28;20531;-82
2023/06/01 05:01:42;;;;;;;0.73;0.73;;;20.00;47.00;;;;;;5079459;28;20575;-81
2023/06/01 05:04:08;;;;;;;1.42;0.90;;;20.00;46.90;;;;;;5078647;28;20160;-80
2023/06/01 05:06:34;;;;;;;0.75;0.60;;;20.00;47.00;;;;;;5078477;28;20562;-81
2023/06/01 05:09:00;;;;;;;0.50;0.50;;;20.00;47.10;;;;;;5078646;28;20222;-80
2023/06/01 05:11:25;;;;;;;0.50;0.50;;;20.00;46.90;;;;;;5078817;28;20176;-80
2023/06/01 05:13:52;;;;;;;0.90;0.73;;;20.00;46.90;;;;;;5078207;28;20180;-81
2023/06/01 05:16:18;;;;;;;0.70;0.60;;;20.00;46.90;;;;;;5078696;28;20196;-81
2023/06/01 05:18:43;;;;;;;0.65;0.50;;;20.00;46.90;;;;;;5096417;28;20236;-80
2023/06/01 05:21:09;;;;;;;0.60;0.60;;;20.00;46.90;;;;;;5061349;28;20167;-80
2023/06/01 05:23:35;;;;;;;0.57;0.57;;;20.00;46.90;;;;;;5078303;28;20206;-80
2023/06/01 05:26:02;;;;;;;0.60;0.60;;;20.00;46.70;;;;;;5077925;28;20176;-81
2023/06/01 05:28:30;;;;;;;0.60;0.60;;;20.00;46.80;;;;;;5062234;28;20145;-81
2023/06/01 05:30:56;;;;;;;1.50;0.70;;;20.00;46.70;;;;;;5078220;28;20271;-81
2023/06/01 05:33:21;;;;;;;0.88;0.60;;;20.00;46.70;;;;;;5078331;28;20672;-82
2023/06/01 05:35:47;;;;;;;0.95;0.85;;;20.10;46.70;;;;;;5078477;28;20189;-82
2023/06/01 05:38:13;;;;;;;0.57;0.50;;;20.00;46.50;;;;;;5061493;28;20630;-81
2023/06/01 05:40:38;;;;;;;1.10;0.60;;;20.10;46.50;;;;;;5093647;28;20233;-82
2023/06/01 05:43:04;;;;;;;0.55;0.55;;;20.10;46.40;;;;;;5078346;28;20498;-82
2023/06/01 05:45:31;;;;;;;0.70;0.70;;;20.10;46.40;;;;;;5096673;28;20161;-80
2023/06/01 05:47:56;;;;;;;0.90;0.60;;;20.10;46.40;;;;;;5079032;28;20167;-82
2023/06/01 05:50:22;;;;;;;0.95;0.60;;;20.20;46.40;;;;;;5097115;28;20160;-82
2023/06/01 05:52:48;;;;;;;0.73;0.50;;;20.20;46.40;;;;;;5090971;28;20630;-80
2023/06/01 05:55:13;;;;;;;0.60;0.57;;;20.20;46.30;;;;;;5087408;28;20318;-82
2023/06/01 05:57:39;;;;;;;0.73;0.45;;;20.20;46.20;;;;;;5082438;28;20164;-81
2023/06/01 06:00:10;;;;;;;0.82;0.60;;;20.20;46.20;;;;;;5104261;28;20163;-80
2023/06/01 06:02:36;;;;;;;0.52;0.52;;;20.20;46.20;;;;;;5067475;28;20167;-80
2023/06/01 06:05:03;;;;;;;0.73;0.73;;;20.20;46.30;;;;;;5082347;28;20153;-82
2023/06/01 06:07:29;;;;;;;0.70;0.70;;;20.20;46.40;;;;;;5082275;28;20229;-80
2023/06/01 06:09:55;;;;;;;0.55;0.50;;;20.20;46.60;;;;;;5082206;28;20168;-80
2023/06/01 06:12:21;;;;;;;1.10;0.80;;;20.30;46.80;;;;;;5098653;28;20623;-81
2023/06/01 06:14:48;;;;;;;0.70;0.60;;;20.20;47.00;;;;;;5095636;28;20218;-80
2023/06/01 06:17:14;;;;;;;1.00;0.70;;;20.30;47.10;;;;;;5088098;28;20160;-80
2023/06/01 06:19:43;;;;;;;0.77;0.60;;;20.30;47.10;;;;;;5100740;28;20239;-82
2023/06/01 06:22:10;;;;;;;1.08;0.60;;;20.30;47.10;;;;;;5097185;28;20607;-80
2023/06/01 06:24:35;;;;;;;0.50;0.50;;;20.30;47.00;;;;;;5062218;28;20169;-81
2023/06/01 06:27:02;;;;;;;0.60;0.60;;;20.30;46.90;;;;;;5061720;28;20256;-80
2023/06/01 06:29:28;;;;;;;0.55;0.55;;;20.30;46.80;;;;;;5093925;28;20192;-81
2023/06/01 06:31:54;;;;;;;0.70;0.70;;;20.30;46.80;;;;;;5115268;27;20219;-81
2023/06/01 06:34:20;;;;;;;0.60;0.60;;;20.30;46.60;;;;;;5137440;27;20155;-82
2023/06/01 06:36:46;;;;;;;0.88;0.65;;;20.30;46.60;;;;;;5118265;27;20726;-82
2023/06/01 06:39:13;;;;;;;0.90;0.60;;;20.40;46.60;;;;;;5119299;27;20152;-82
2023/06/01 06:41:42;;;;;;;0.65;0.50;;;20.30;46.30;;;;;;5124928;27;20160;-81
2023/06/01 06:44:08;;;;;;;0.70;0.60;;;20.30;46.20;;;;;;5097488;28;20179;-82
2023/06/01 06:46:33;;;;;;;0.60;0.60;;;20.30;46.30;;;;;;5099434;28;20164;-81
2023/06/01 06:48:59;;;;;;;0.60;0.50;;;20.20;45.90;;;;;;5096891;28;20634;-83
2023/06/01 06:51:25;;;;;;;0.32;0.32;;;20.20;45.50;;;;;;5119636;28;20164;-82
2023/06/01 06:53:51;;;;;;;0.60;0.60;;;20.10;45.20;;;;;;5083154;28;20191;-80
2023/06/01 06:56:16;;;;;;;0.80;0.63;;;20.10;45.30;;;;;;5082307;28;20219;-82
2023/06/01 06:58:43;;;;;;;0.50;0.50;;;20.00;44.80;;;;;;5115489;28;20610;-80
2023/06/01 07:01:10;;;;;;;0.73;0.70;;;19.90;44.60;;;;;;5081384;28;20229;-82
2023/06/01 07:03:37;;;;;;;0.82;0.50;;;20.00;44.80;;;;;;5079134;28;20251;-81
2023/06/01 07:06:02;;;;;;;0.60;0.55;;;19.90;44.60;;;;;;5095607;28;20241;-81
2023/06/01 07:08:28;;;;;;;0.70;0.50;;;19.90;44.80;;;;;;5092126;28;20160;-81
2023/06/01 07:10:55;;;;;;;2.95;0.73;;;19.80;44.50;;;;;;5061155;28;20255;-81
2023/06/01 07:13:23;;;;;;;0.55;0.55;;;19.80;44.40;;;;;;5077411;28;20144;-82
2023/06/01 07:15:48;;;;;;;0.93;0.55;;;19.80;43.90;;;;;;5091362;28;20191;-81
2023/06/01 07:18:14;;;;;;;0.85;0.70;;;19.80;44.20;;;;;;5081073;28;20164;-81
2023/06/01 07:20:40;;;;;;;3.00;0.57;;;19.80;44.00;;;;;;5081980;28;20160;-81
2023/06/01 07:23:06;;;;;;;0.73;0.60;;;19.80;43.70;;;;;;5099534;28;20707;-81
2023/06/01 07:25:32;;;;;;;0.47;0.45;;;19.80;43.70;;;;;;5099541;28;20148;-82
2023/06/01 07:27:58;;;;;;;0.55;0.40;;;19.80;43.60;;;;;;5117865;28;20191;-81
2023/06/01 07:30:23;;;;;;;0.70;0.70;;;19.70;43.60;;;;;;5082692;28;20306;-81
2023/06/01 07:32:49;;;;;;;0.85;0.50;;;19.70;43.30;;;;;;5082948;28;20199;-83
2023/06/01 07:35:15;;;;;;;0.73;0.50;;;19.70;43.40;;;;;;5117662;28;20670;-82
2023/06/01 07:37:41;;;;;;;2.65;0.60;;;19.70;43.30;;;;;;5118571;28;20148;-82
2023/06/01 07:40:07;;;;;;;0.70;0.50;;;19.70;43.10;;;;;;5117352;28;20553;-82
2023/06/01 07:42:33;;;;;;;0.70;0.50;;;19.70;42.90;;;;;;5117085;28;20213;-82
2023/06/01 07:44:59;;;;;;;0.95;0.50;;;19.70;43.00;;;;;;5081797;28;20156;-83
2023/06/01 07:47:25;;;;;;;1.00;0.73;;;19.70;43.00;;;;;;5081963;28;20256;-82
2023/06/01 07:49:51;;;;;;;0.70;0.50;;;19.70;42.50;;;;;;5099014;28;20578;-82
2023/06/01 07:52:17;;;;;;;1.98;0.55;;;19.70;42.60;;;;;;5082761;28;20160;-82
2023/06/01 07:54:43;;;;;;;0.50;0.50;;;19.70;42.40;;;;;;5102740;28;20156;-81
2023/06/01 07:57:08;;;;;;;0.30;0.30;;;19.70;42.50;;;;;;5117253;28;20164;-82
2023/06/01 07:59:34;;;;;;;1.98;0.50;;;19.70;42.20;;;;;;5116284;28;20236;-81
2023/06/01 08:02:00;;;;;;;2.38;0.47;;;19.70;42.20;;;;;;5098568;28;20615;-81
2023/06/01 08:04:27;;;;;;;0.60;0.50;;;19.70;42.10;;;;;;5098397;28;20168;-81
2023/06/01 08:06:53;;;;;;;1.83;0.70;;;19.70;42.00;;;;;;5094566;28;20676;-80
2023/06/01 08:09:21;;;;;;;3.03;0.55;;;19.70;41.90;;;;;;5097088;28;20229;-81
2023/06/01 08:11:48;;;;;;;1.48;0.75;;;19.70;41.80;;;;;;5096518;28;20148;-81
2023/06/01 08:14:14;;;;;;;3.78;0.60;;;19.70;41.60;;;;;;5096238;28;20514;-80
2023/06/01 08:16:39;;;;;;;3.03;0.95;;;19.70;41.60;;;;;;5101447;27;20191;-80
2023/06/01 08:19:05;;;;;;;4.97;0.60;;;19.70;41.30;;;;;;5094977;28;20164;-82
2023/06/01 08:21:31;;;;;;;4.00;0.90;;;19.70;41.20;;;;;;5096644;28;20155;-81
2023/06/01 08:23:57;;;;;;;4.40;0.70;;;19.70;41.20;;;;;;5094930;28;20153;-82
2023/06/01 08:26:23;;;;;;;3.00;0.70;;;19.70;41.70;;;;;;5095213;28;20207;-81
2023/06/01 08:28:52;;;;;;;4.60;0.77;;;19.80;41.00;;;;;;5095327;28;20199;-81
2023/06/01 08:31:20;;;;;;;4.95;0.90;;;19.60;40.90;;;;;;5094575;28;20216;-80
2023/06/01 08:33:46;;;;;;;1.30;0.73;;;19.70;40.70;;;;;;5095181;28;20611;-81
2023/06/01 08:36:12;;;;;;;4.40;0.73;;;19.80;40.80;;;;;;5060383;28;20219;-81
2023/06/01 08:38:38;;;;;;;3.15;0.88;;;19.70;40.60;;;;;;5094901;28;20508;-81
2023/06/01 08:41:08;;;;;;;1.90;0.63;;;19.70;40.50;;;;;;5096354;28;20198;-82
2023/06/01 08:43:34;;;;;;;3.70;0.70;;;19.80;40.40;;;;;;5079175;28;20223;-81
2023/06/01 08:46:00;;;;;;;4.25;1.00;;;19.70;40.50;;;;;;5094961;28;20623;-80
2023/06/01 08:48:26;;;;;;;6.75;0.75;;;19.70;40.40;;;;;;5094347;28;20161;-81
2023/06/01 08:50:53;;;;;;;5.63;0.80;;;19.70;40.30;;;;;;5094403;28;20256;-81
2023/06/01 08:53:21;;;;;;;3.28;0.65;;;19.70;40.20;;;;;;5094604;28;20192;-80
2023/06/01 08:55:51;;;;;;;5.10;1.00;;;19.70;40.00;;;;;;5111411;28;20551;-80
2023/06/01 08:58:16;;;;;;;3.03;0.70;;;19.70;40.00;;;;;;5095562;28;20157;-80
2023/06/01 09:00:42;;;;;;;2.47;0.88;;;19.70;39.90;;;;;;5077790;28;20169;-81
2023/06/01 09:03:07;;;;;;;1.88;0.80;;;19.70;39.80;;;;;;5094109;28;20591;-81
2023/06/01 09:05:33;;;;;;;4.78;0.90;;;19.70;39.70;;;;;;5095367;28;20219;-80
2023/06/01 09:07:59;;;;;;;2.78;0.80;;;19.70;39.60;;;;;;5094311;28;20161;-80
2023/06/01 09:10:25;;;;;;;2.10;0.70;;;19.70;39.50;;;;;;5095316;28;20156;-81
2023/06/01 09:12:52;;;;;;;3.13;0.75;;;19.70;39.40;;;;;;5077121;28;20164;-81
2023/06/01 09:15:19;;;;;;;5.53;0.75;;;19.70;39.40;;;;;;5093779;28;20185;-81
2023/06/01 09:17:46;;;;;;;8.90;1.10;;;19.70;39.40;;;;;;5095549;28;20500;-80
2023/06/01 09:20:14;;;;;;;2.90;0.60;;;19.70;39.50;;;;;;5094682;28;20152;-81
2023/06/01 09:22:44;;;;;;;2.58;0.90;;;19.70;39.50;;;;;;5093526;28;20161;-81
2023/06/01 09:25:12;;;;;;;4.05;0.90;;;19.70;39.10;;;;;;5077505;28;20218;-81
2023/06/01 09:27:44;;;;;;;4.05;0.75;;;19.70;39.30;;;;;;5094751;28;20160;-81
2023/06/01 09:30:10;;;;;;;2.25;0.90;;;19.70;39.10;;;;;;5095005;28;20157;-81
2023/06/01 09:32:35;;;;;;;2.47;0.68;;;19.70;38.80;;;;;;5076866;28;20161;-81
2023/06/01 09:35:01;;;;;;;7.93;0.80;;;19.70;38.70;;;;;;5095054;28;20630;-81
2023/06/01 09:37:27;;;;;;;6.07;1.02;;;19.70;38.70;;;;;;5094796;28;20150;-80
2023/06/01 09:39:52;;;;;;;4.50;0.75;;;19.70;38.50;;;;;;5076688;28;20570;-80
2023/06/01 09:42:19;;;;;;;4.25;0.85;;;19.70;38.60;;;;;;5095034;28;20145;-80
2023/06/01 09:44:45;;;;;;;4.05;0.68;;;19.70;38.30;;;;;;5060148;28;20205;-80
2023/06/01 09:47:12;;;;;;;2.78;0.68;;;19.80;38.20;;;;;;5076280;28;20181;-80
2023/06/01 09:49:41;;;;;;;2.88;0.60;;;19.70;38.40;;;;;;5076435;28;20176;-79
2023/06/01 09:52:09;;;;;;;3.70;0.80;;;19.70;38.40;;;;;;5059797;28;20204;-80
2023/06/01 09:54:38;;;;;;;3.42;0.73;;;19.70;38.50;;;;;;5060113;28;20160;-80
2023/06/01 09:57:04;;;;;;;1.38;0.60;;;19.70;38.40;;;;;;5059695;28;20238;-80
2023/06/01 09:59:37;;;;;;;4.57;0.90;;;19.70;38.40;;;;;;5059194;28;20580;-80
2023/06/01 10:02:03;;;;;;;7.15;0.95;;;19.70;38.20;;;;;;5043422;28;20596;-81
2023/06/01 10:04:29;;;;;;;2.95;0.77;;;19.70;38.30;;;;;;5060133;28;20262;-82
2023/06/01 10:06:55;;;;;;;3.58;0.85;;;19.60;38.20;;;;;;5059557;28;20164;-81
2023/06/01 10:09:22;;;;;;;2.38;0.80;;;19.70;38.50;;;;;;5094099;28;20161;-81
2023/06/01 10:11:49;;;;;;;4.65;0.95;;;19.70;38.20;;;;;;5075933;28;20174;-81
2023/06/01 10:14:16;;;;;;;2.03;0.60;;;19.60;38.00;;;;;;5042532;28;20233;-81
2023/06/01 10:16:42;;;;;;;3.22;0.70;;;19.60;38.00;;;;;;5043198;28;20192;-82
2023/06/01 10:19:08;;;;;;;2.95;0.85;;;19.60;38.00;;;;;;5060034;28;20168;-81
2023/06/01 10:21:34;;;;;;;2.53;0.90;;;19.60;37.90;;;;;;5076426;28;20624;-81
2023/06/01 10:24:00;;;;;;;6.68;1.02;;;19.60;37.80;;;;;;5094220;28;20149;-81
2023/06/01 10:26:26;;;;;;;3.58;0.70;;;19.60;37.70;;;;;;5093848;28;20491;-80
2023/06/01 10:28:52;;;;;;;3.75;0.85;;;19.70;37.60;;;;;;5093641;28;20156;-80
2023/06/01 10:31:32;;;;;;;1.90;0.60;;;19.70;37.50;;;;;;5092305;28;20582;-81
2023/06/01 10:34:02;;;;;;;1.10;0.60;;;19.70;37.30;;;;;;5077126;28;20612;-81
2023/06/01 10:37:06;;;;;;;2.80;0.60;;;19.70;37.40;;;;;;5044159;28;20188;-81
2023/06/01 10:39:34;;;;;;;2.83;0.70;;;19.70;37.30;;;;;;5093828;28;20172;-82
2023/06/01 10:42:40;;;;;;;2.92;0.63;;;19.70;37.20;;;;;;5059559;28;20250;-81
2023/06/01 10:45:36;;;;;;;4.63;0.70;;;19.70;37.10;;;;;;5061231;28;20165;-83
2023/06/01 10:48:02;;;;;;;2.05;0.60;;;19.70;37.20;;;;;;5050269;28;20178;-81
2023/06/01 10:50:27;;;;;;;3.00;0.85;;;19.70;37.20;;;;;;5033860;28;20289;-81
2023/06/01 10:52:54;;;;;;;1.35;0.70;;;19.70;37.30;;;;;;5018226;28;20285;-81
2023/06/01 10:55:43;;;;;;;1.27;0.65;;;19.60;37.20;;;;;;5020900;28;20190;-82
2023/06/01 10:58:27;;;;;;;1.08;0.70;;;19.70;36.80;;;;;;5005210;28;20631;-81
2023/06/01 11:01:01;;;;;;;4.68;0.70;;;19.70;37.00;;;;;;5038510;28;20154;-82
2023/06/01 11:03:50;;;;;;;1.95;0.60;;;19.70;37.10;;;;;;5026118;28;20288;-81
2023/06/01 11:07:19;;;;;;;;;;;;;;;;;;;;;
2023/06/01 11:09:57;;;;;;;0.82;0.63;;;19.60;36.70;;;;;;4932969;28;20200;-81
2023/06/01 11:12:26;;;;;;;1.52;0.90;;;19.70;36.70;;;;;;4975888;28;20183;-82
2023/06/01 11:15:21;;;;;;;3.05;0.80;;;19.70;36.40;;;;;;4993271;28;20156;-81
2023/06/01 11:18:12;;;;;;;2.42;0.57;;;19.70;36.50;;;;;;4996046;28;20184;-85
2023/06/01 11:20:40;;;;;;;1.58;0.60;;;19.70;36.60;;;;;;5011710;28;20183;-84
2023/06/01 11:24:02;;;;;;;;;;;;;;;;;;;;;
2023/06/01 11:26:50;;;;;;;1.58;0.60;;;19.80;36.20;;;;;;4939191;29;20612;-84
2023/06/01 11:32:36;;;;;;;2.35;0.68;;;19.80;36.10;;;;;;4934031;29;20226;-82
2023/06/01 11:35:28;;;;;;;5.00;0.85;;;19.90;36.10;;;;;;4923402;29;20186;-83
2023/06/01 11:37:57;;;;;;;4.10;0.60;;;19.80;36.10;;;;;;4923628;29;20182;-83
2023/06/01 11:40:24;;;;;;;2.28;0.65;;;19.80;36.30;;;;;;4898993;29;20187;-82
2023/06/01 11:43:28;;;;;;;1.50;0.57;;;19.80;36.10;;;;;;4883975;29;20243;-83
2023/06/01 11:46:15;;;;;;;2.05;0.60;;;19.80;36.00;;;;;;4877945;29;20187;-82
2023/06/01 11:49:01;;;;;;;1.45;0.63;;;19.80;35.90;;;;;;4876781;29;20616;-83
2023/06/01 11:51:30;;;;;;;1.40;0.45;;;19.80;35.80;;;;;;4878887;29;20560;-83
2023/06/01 11:53:57;;;;;;;3.47;0.63;;;19.80;35.80;;;;;;4880454;29;20187;-82
2023/06/01 11:56:34;;;;;;;2.42;0.60;;;19.90;35.90;;;;;;4863508;29;20219;-83
2023/06/01 11:59:39;;;;;;;1.05;0.88;;;19.80;35.80;;;;;;4862484;29;20202;-84
2023/06/01 12:02:25;;;;;;;4.75;0.80;;;19.80;35.80;;;;;;4825102;29;20198;-82
2023/06/01 12:05:17;;;;;;;2.97;0.60;;;19.80;35.70;;;;;;4822150;29;20187;-82
2023/06/01 12:08:20;;;;;;;1.55;0.70;;;19.80;35.50;;;;;;4820465;29;20197;-82
2023/06/01 12:10:50;;;;;;;0.90;0.60;;;19.80;35.50;;;;;;4811203;29;20189;-81
2023/06/01 12:13:17;;;;;;;3.20;0.77;;;19.90;35.60;;;;;;4827478;29;20224;-81
2023/06/01 12:15:44;;;;;;;0.80;0.70;;;19.80;36.20;;;;;;4798205;29;20221;-81
2023/06/01 12:18:10;;;;;;;4.72;0.95;;;19.80;35.40;;;;;;4857952;29;20180;-81
2023/06/01 12:20:38;;;;;;;3.03;0.70;;;19.90;35.60;;;;;;4880254;29;20696;-82
2023/06/01 12:23:15;;;;;;;1.65;0.70;;;19.90;35.70;;;;;;4880917;29;20255;-82
2023/06/01 12:25:59;;;;;;;1.65;0.50;;;19.90;35.70;;;;;;4881284;29;20180;-81
2023/06/01 12:28:51;;;;;;;3.58;0.68;;;19.80;35.20;;;;;;4916300;29;20196;-81
2023/06/01 12:31:37;;;;;;;4.68;0.60;;;19.90;35.40;;;;;;4918648;29;20309;-81
2023/06/01 12:34:20;;;;;;;2.60;0.60;;;19.80;35.60;;;;;;4900913;29;20705;-82
2023/06/01 12:40:19;;;;;;;1.20;0.60;;;19.80;35.50;;;;;;4861132;29;20184;-81
2023/06/01 12:42:48;;;;;;;2.08;0.82;;;19.80;35.70;;;;;;4859153;29;20188;-82
2023/06/01 12:45:14;;;;;;;1.67;0.60;;;19.80;35.40;;;;;;4873670;29;20655;-81
2023/06/01 12:47:57;;;;;;;1.70;0.60;;;19.70;35.60;;;;;;4937877;29;20241;-83
2023/06/01 12:51:13;;;;;;;1.30;0.57;;;19.80;35.60;;;;;;4935400;29;20214;-82
2023/06/01 12:53:42;;;;;;;3.13;0.90;;;19.80;35.30;;;;;;4922758;29;20194;-81
2023/06/01 12:56:09;;;;;;;2.40;0.65;;;19.80;35.10;;;;;;4936012;29;20304;-81
2023/06/01 12:58:35;;;;;;;4.60;1.00;;;19.80;35.50;;;;;;4935608;29;20590;-81
2023/06/01 13:01:01;;;;;;;0.80;0.63;;;19.70;35.40;;;;;;4947826;28;20189;-83
2023/06/01 13:03:27;;;;;;;2.53;0.70;;;19.80;35.30;;;;;;4944879;28;20185;-84
2023/06/01 13:05:54;;;;;;;2.15;0.60;;;19.80;35.20;;;;;;4957403;28;20236;-83